»·PEaware :: N208SG KRNM-KLGB

N208SG :: KRNM-KLGB

FLIGHT INFORMATION

Flight Status: Arrived
Operator: Privately registered:
United States
More flights under this callsign
Pilot: Cristian C. (4072)
Aircraft: CESSNA 208 CARAVAN
(C208)
More flights by this aircraft type
Origin: KRNM Ramona
United States
Destination: KLGB Long Beach
United States
More flights between these airports :: More routes between these airports
Route: ROBNN V208 OCN V23 SLI
File this flight plan on PilotEdge
Remarks: TEC route SANP3
Altitude:
(Current/Filed)
6,000ft
Speed:
(Current/Filed)
160kts
Departed: 28-Sep-20 09:28 AM
Arrived: 28-Sep-20 09:59 AM
Distance/Time
Traveled:
78nm/0:31
Distance/Time
To Go:
Arrived

Flight Plot

Page will automatically refresh every two minutes.


Map Options




Map Legend


Flown Route
Filed Route
Departure Airport
Arrival Airport
Navaid (VOR, NDB)
Fix

Horizontal Profiles

Position Reports

Time Latitude Longitude Heading Altitude Ground
Speed
28-Sep-20 09:05 33.039906 -116.910231 279 1401ft 0kts
28-Sep-20 09:06 33.039906 -116.910231 279 1401ft 0kts
28-Sep-20 09:07 33.039906 -116.910231 279 1401ft 0kts
28-Sep-20 09:08 33.039906 -116.910231 279 1401ft 0kts
28-Sep-20 09:09 33.039906 -116.910231 279 1401ft 0kts
28-Sep-20 09:10 33.039906 -116.910231 279 1401ft 0kts
28-Sep-20 09:11 33.039906 -116.910231 279 1401ft 0kts
28-Sep-20 09:12 33.039906 -116.910231 279 1401ft 0kts
28-Sep-20 09:13 33.039906 -116.910231 279 1401ft 0kts
28-Sep-20 09:14 33.039906 -116.910231 279 1401ft 0kts
28-Sep-20 09:15 33.039906 -116.910231 279 1401ft 0kts
28-Sep-20 09:16 33.039906 -116.910231 279 1401ft 0kts
28-Sep-20 09:17 33.039906 -116.910231 279 1401ft 0kts
28-Sep-20 09:18 33.039906 -116.910231 279 1401ft 0kts
28-Sep-20 09:19 33.039906 -116.910231 279 1401ft 0kts
28-Sep-20 09:20 33.039906 -116.910231 279 1401ft 0kts
28-Sep-20 09:21 33.039906 -116.910231 279 1401ft 0kts
28-Sep-20 09:22 33.039907 -116.910236 277 1401ft 0kts
28-Sep-20 09:23 33.039061 -116.909785 98 1401ft 5kts
28-Sep-20 09:25 33.038759 -116.907743 98 1402ft 6kts
28-Sep-20 09:26 33.038469 -116.907246 169 1403ft 0kts
28-Sep-20 09:27 33.038400 -116.907239 182 1403ft 5kts
28-Sep-20 09:28 33.039723 -116.919947 275 1503ft 101kts
28-Sep-20 09:29 33.044448 -116.959854 279 2613ft 129kts
28-Sep-20 09:30 33.050528 -117.002607 279 4014ft 132kts
28-Sep-20 09:31 33.063691 -117.044602 299 5222ft 141kts
28-Sep-20 09:32 33.084362 -117.088707 300 5960ft 169kts
28-Sep-20 09:33 33.108295 -117.138724 300 5959ft 175kts
28-Sep-20 09:34 33.132423 -117.189651 300 5957ft 175kts
28-Sep-20 09:35 33.156427 -117.240383 299 5959ft 175kts
28-Sep-20 09:36 33.180482 -117.291315 299 5960ft 176kts
28-Sep-20 09:37 33.204706 -117.342580 299 5962ft 176kts
28-Sep-20 09:38 33.228865 -117.393878 299 5960ft 177kts
28-Sep-20 09:39 33.258092 -117.440527 320 5963ft 176kts
28-Sep-20 09:40 33.294105 -117.480694 316 5965ft 176kts
28-Sep-20 09:41 33.329223 -117.521696 316 5966ft 176kts
28-Sep-20 09:42 33.364412 -117.562739 316 5986ft 177kts
28-Sep-20 09:42 33.393736 -117.596998 316 5986ft 177kts
28-Sep-20 09:44 33.436022 -117.643746 321 5878ft 181kts
28-Sep-20 09:45 33.474985 -117.681359 322 5377ft 178kts
28-Sep-20 09:45 33.507276 -117.712458 322 4960ft 177kts
28-Sep-20 09:47 33.554130 -117.752092 327 4375ft 176kts
28-Sep-20 09:47 33.587888 -117.778834 327 4000ft 171kts
28-Sep-20 09:48 33.626258 -117.809147 327 3987ft 163kts
28-Sep-20 09:50 33.670229 -117.843974 327 3988ft 161kts
28-Sep-20 09:50 33.687739 -117.881740 268 3708ft 172kts
28-Sep-20 09:51 33.682549 -117.939311 271 3111ft 173kts
28-Sep-20 09:52 33.691270 -117.995872 284 2522ft 171kts
28-Sep-20 09:53 33.722488 -118.035442 311 2121ft 166kts
28-Sep-20 09:54 33.752302 -118.072331 315 1647ft 154kts
28-Sep-20 09:55 33.772575 -118.096890 314 1127ft 122kts
28-Sep-20 09:56 33.791898 -118.120246 316 581ft 86kts
28-Sep-20 09:57 33.807885 -118.139398 313 162ft 83kts
28-Sep-20 09:58 33.818497 -118.152260 297 50ft 16kts
28-Sep-20 09:59 33.818550 -118.153494 271 50ft 2kts
28-Sep-20 10:00 33.817277 -118.157312 187 49ft 14kts
28-Sep-20 10:01 33.813241 -118.157284 147 55ft 10kts
28-Sep-20 10:02 33.812634 -118.156836 279 56ft 0kts
28-Sep-20 10:03 33.812634 -118.156836 279 56ft 0kts
28-Sep-20 10:04 33.812634 -118.156836 279 56ft 0kts
28-Sep-20 10:05 33.812634 -118.156836 279 56ft 0kts
28-Sep-20 10:06 33.812634 -118.156836 279 56ft 0kts

Navigation Log

Ident Type
Flight plan parsing failed, navigation log unavailable